sensor_id;sensor_type;location;lat;lon;timestamp;pressure;altitude;pressure_sealevel;temperature;humidity
45789;BME280;31492;54.856;26.318;2022-07-01T00:03:36;1004.1;;;21;100
45789;BME280;31492;54.856;26.318;2022-07-01T00:08:36;1004.1;;;21;100
45789;BME280;31492;54.856;26.318;2022-07-01T00:13:36;1004.1;;;21;100
45789;BME280;31492;54.856;26.318;2022-07-01T00:18:36;1004.1;;;21;100
45789;BME280;31492;54.856;26.318;2022-07-01T00:23:36;1004.1;;;21;100
45789;BME280;31492;54.856;26.318;2022-07-01T00:28:36;1004.1;;;21;100
45789;BME280;31492;54.856;26.318;2022-07-01T00:33:36;1004.1;;;21;100
45789;BME280;31492;54.856;26.318;2022-07-01T00:38:36;1004.1;;;21;100
45789;BME280;31492;54.856;26.318;2022-07-01T00:43:36;1004.1;;;21;100
45789;BME280;31492;54.856;26.318;2022-07-01T00:48:36;1004.1;;;21;100
45789;BME280;31492;54.856;26.318;2022-07-01T00:53:36;1004.1;;;21;100
45789;BME280;31492;54.856;26.318;2022-07-01T00:58:36;1004.1;;;21;100
45789;BME280;31492;54.856;26.318;2022-07-01T01:03:36;1004.1;;;21;100
45789;BME280;31492;54.856;26.318;2022-07-01T01:08:36;1004.1;;;21;100
45789;BME280;31492;54.856;26.318;2022-07-01T01:13:36;1004.1;;;21;100
45789;BME280;31492;54.856;26.318;2022-07-01T01:18:36;1004.1;;;21;100
45789;BME280;31492;54.856;26.318;2022-07-01T01:23:36;1004.1;;;21;100
45789;BME280;31492;54.856;26.318;2022-07-01T01:28:36;1004.1;;;21;100
45789;BME280;31492;54.856;26.318;2022-07-01T01:33:36;1004.1;;;21;100
45789;BME280;31492;54.856;26.318;2022-07-01T01:38:36;1004.1;;;21;100
45789;BME280;31492;54.856;26.318;2022-07-01T01:43:36;1004.1;;;21;100
45789;BME280;31492;54.856;26.318;2022-07-01T01:48:36;1004.1;;;21;100
45789;BME280;31492;54.856;26.318;2022-07-01T01:53:36;1004.1;;;21;100
45789;BME280;31492;54.856;26.318;2022-07-01T01:58:36;1004.1;;;21;100
45789;BME280;31492;54.856;26.318;2022-07-01T02:03:36;1004.1;;;21;100
45789;BME280;31492;54.856;26.318;2022-07-01T02:08:36;1004.1;;;21;100
45789;BME280;31492;54.856;26.318;2022-07-01T02:13:36;1004.1;;;21;100
45789;BME280;31492;54.856;26.318;2022-07-01T02:18:36;1004.1;;;21;100
45789;BME280;31492;54.856;26.318;2022-07-01T02:23:36;1004.1;;;21;100
45789;BME280;31492;54.856;26.318;2022-07-01T02:28:36;1004.1;;;21;100
45789;BME280;31492;54.856;26.318;2022-07-01T02:33:36;1004.1;;;21;100
45789;BME280;31492;54.856;26.318;2022-07-01T02:38:36;1004.1;;;21;100
45789;BME280;31492;54.856;26.318;2022-07-01T02:43:36;1004.1;;;21;100
45789;BME280;31492;54.856;26.318;2022-07-01T02:48:36;1004.1;;;21;100
45789;BME280;31492;54.856;26.318;2022-07-01T02:53:36;1004.1;;;21;100
45789;BME280;31492;54.856;26.318;2022-07-01T02:58:36;1004.1;;;21;100
45789;BME280;31492;54.856;26.318;2022-07-01T03:03:36;1004.1;;;21;100
45789;BME280;31492;54.856;26.318;2022-07-01T03:08:36;1004.1;;;21;100
45789;BME280;31492;54.856;26.318;2022-07-01T03:13:36;1004.1;;;21;100
45789;BME280;31492;54.856;26.318;2022-07-01T03:18:36;1004.1;;;21;100
45789;BME280;31492;54.856;26.318;2022-07-01T03:23:36;1004.1;;;21;100
45789;BME280;31492;54.856;26.318;2022-07-01T03:28:36;1004.1;;;21;100
45789;BME280;31492;54.856;26.318;2022-07-01T03:33:36;1004.1;;;21;100
45789;BME280;31492;54.856;26.318;2022-07-01T03:38:36;1004.1;;;21;100
45789;BME280;31492;54.856;26.318;2022-07-01T03:43:36;1004.1;;;21;100
45789;BME280;31492;54.856;26.318;2022-07-01T03:48:36;1004.1;;;21;100
45789;BME280;31492;54.856;26.318;2022-07-01T03:53:36;1004.1;;;21;100
45789;BME280;31492;54.856;26.318;2022-07-01T03:58:36;1004.1;;;21;100
45789;BME280;31492;54.856;26.318;2022-07-01T04:03:36;1004.1;;;21;100
45789;BME280;31492;54.856;26.318;2022-07-01T04:08:36;1004.1;;;21;100
45789;BME280;31492;54.856;26.318;2022-07-01T04:13:36;1004.1;;;21;100
45789;BME280;31492;54.856;26.318;2022-07-01T04:18:36;1004.1;;;21;100
45789;BME280;31492;54.856;26.318;2022-07-01T04:23:36;1004.1;;;21;100
45789;BME280;31492;54.856;26.318;2022-07-01T04:28:36;1004.1;;;21;100
45789;BME280;31492;54.856;26.318;2022-07-01T04:33:36;1004.1;;;21;100
45789;BME280;31492;54.856;26.318;2022-07-01T04:38:36;1004.1;;;21;100
45789;BME280;31492;54.856;26.318;2022-07-01T04:43:36;1004.1;;;21;100
45789;BME280;31492;54.856;26.318;2022-07-01T04:48:36;1004.1;;;21;100
45789;BME280;31492;54.856;26.318;2022-07-01T04:53:36;1004.1;;;21;100
45789;BME280;31492;54.856;26.318;2022-07-01T04:58:36;1004.1;;;21;100
45789;BME280;31492;54.856;26.318;2022-07-01T05:03:36;1004.1;;;21;100
45789;BME280;31492;54.856;26.318;2022-07-01T05:08:36;1004.1;;;21;100
45789;BME280;31492;54.856;26.318;2022-07-01T05:13:36;1004.1;;;21;100
45789;BME280;31492;54.856;26.318;2022-07-01T05:18:36;1004.1;;;21;100
45789;BME280;31492;54.856;26.318;2022-07-01T05:23:36;1004.1;;;21;100
45789;BME280;31492;54.856;26.318;2022-07-01T05:28:36;1004.1;;;21;100
45789;BME280;31492;54.856;26.318;2022-07-01T05:33:36;1004.1;;;21;100
45789;BME280;31492;54.856;26.318;2022-07-01T05:38:36;1004.1;;;21;100
45789;BME280;31492;54.856;26.318;2022-07-01T05:43:36;1004.1;;;21;100
45789;BME280;31492;54.856;26.318;2022-07-01T05:48:36;1004.1;;;21;100
45789;BME280;31492;54.856;26.318;2022-07-01T05:53:36;1004.1;;;21;100
45789;BME280;31492;54.856;26.318;2022-07-01T05:58:36;1004.1;;;21;100
45789;BME280;31492;54.856;26.318;2022-07-01T06:03:36;1004.1;;;21;100
45789;BME280;31492;54.856;26.318;2022-07-01T06:08:36;1004.1;;;21;100
45789;BME280;31492;54.856;26.318;2022-07-01T06:13:36;1004.1;;;21;100
45789;BME280;31492;54.856;26.318;2022-07-01T06:18:36;1004.1;;;21;100
45789;BME280;31492;54.856;26.318;2022-07-01T06:23:36;1004.1;;;21;100
45789;BME280;31492;54.856;26.318;2022-07-01T06:28:36;1004.1;;;21;100
45789;BME280;31492;54.856;26.318;2022-07-01T06:33:36;1004.1;;;21;100
45789;BME280;31492;54.856;26.318;2022-07-01T06:38:36;1004.1;;;21;100
45789;BME280;31492;54.856;26.318;2022-07-01T06:43:36;1004.1;;;21;100
45789;BME280;31492;54.856;26.318;2022-07-01T06:48:36;1004.1;;;21;100
45789;BME280;31492;54.856;26.318;2022-07-01T06:53:36;1004.1;;;21;100
45789;BME280;31492;54.856;26.318;2022-07-01T06:58:36;1004.1;;;21;100
45789;BME280;31492;54.856;26.318;2022-07-01T07:03:36;1004.1;;;21;100
45789;BME280;31492;54.856;26.318;2022-07-01T07:08:36;1004.1;;;21;100
45789;BME280;31492;54.856;26.318;2022-07-01T07:13:36;1004.1;;;21;100
45789;BME280;31492;54.856;26.318;2022-07-01T07:18:36;1004.1;;;21;100
45789;BME280;31492;54.856;26.318;2022-07-01T07:23:36;1004.1;;;21;100
45789;BME280;31492;54.856;26.318;2022-07-01T07:28:36;1004.1;;;21;100
45789;BME280;31492;54.856;26.318;2022-07-01T07:33:36;1004.1;;;21;100
45789;BME280;31492;54.856;26.318;2022-07-01T07:38:36;1004.1;;;21;100
45789;BME280;31492;54.856;26.318;2022-07-01T07:43:36;1004.1;;;21;100
45789;BME280;31492;54.856;26.318;2022-07-01T07:48:36;1004.1;;;21;100
45789;BME280;31492;54.856;26.318;2022-07-01T07:53:36;1004.1;;;21;100
45789;BME280;31492;54.856;26.318;2022-07-01T07:58:36;1004.1;;;21;100
45789;BME280;31492;54.856;26.318;2022-07-01T08:03:36;1004.1;;;21;100
45789;BME280;31492;54.856;26.318;2022-07-01T08:08:36;1004.1;;;21;100
45789;BME280;31492;54.856;26.318;2022-07-01T08:13:36;1004.1;;;21;100
45789;BME280;31492;54.856;26.318;2022-07-01T08:18:37;1004.1;;;21;100
45789;BME280;31492;54.856;26.318;2022-07-01T08:23:36;1004.1;;;21;100
45789;BME280;31492;54.856;26.318;2022-07-01T08:28:36;1004.1;;;21;100
45789;BME280;31492;54.856;26.318;2022-07-01T08:33:36;1004.1;;;21;100
45789;BME280;31492;54.856;26.318;2022-07-01T08:38:36;1004.1;;;21;100
45789;BME280;31492;54.856;26.318;2022-07-01T08:43:36;1004.1;;;21;100
45789;BME280;31492;54.856;26.318;2022-07-01T08:48:36;1004.1;;;21;100
45789;BME280;31492;54.856;26.318;2022-07-01T08:53:36;1004.1;;;21;100
45789;BME280;31492;54.856;26.318;2022-07-01T08:58:36;1004.1;;;21;100
45789;BME280;31492;54.856;26.318;2022-07-01T09:03:36;1004.1;;;21;100
45789;BME280;31492;54.856;26.318;2022-07-01T09:08:36;1004.1;;;21;100
45789;BME280;31492;54.856;26.318;2022-07-01T09:13:36;1004.1;;;21;100
45789;BME280;31492;54.856;26.318;2022-07-01T09:18:36;1004.1;;;21;100
45789;BME280;31492;54.856;26.318;2022-07-01T09:23:36;1004.1;;;21;100
45789;BME280;31492;54.856;26.318;2022-07-01T09:28:37;1004.1;;;21;100
45789;BME280;31492;54.856;26.318;2022-07-01T09:33:36;1004.1;;;21;100
45789;BME280;31492;54.856;26.318;2022-07-01T09:38:36;1004.1;;;21;100
45789;BME280;31492;54.856;26.318;2022-07-01T09:43:36;1004.1;;;21;100
45789;BME280;31492;54.856;26.318;2022-07-01T09:48:43;1004.1;;;21;100
45789;BME280;31492;54.856;26.318;2022-07-01T09:53:36;1004.1;;;21;100
45789;BME280;31492;54.856;26.318;2022-07-01T09:58:36;1004.1;;;21;100
45789;BME280;31492;54.856;26.318;2022-07-01T10:03:36;1004.1;;;21;100
45789;BME280;31492;54.856;26.318;2022-07-01T10:08:39;1004.1;;;21;100
45789;BME280;31492;54.856;26.318;2022-07-01T10:13:36;1004.1;;;21;100
45789;BME280;31492;54.856;26.318;2022-07-01T10:18:36;1004.1;;;21;100
45789;BME280;31492;54.856;26.318;2022-07-01T10:23:38;1004.1;;;21;100
45789;BME280;31492;54.856;26.318;2022-07-01T10:28:42;1004.1;;;21;100
45789;BME280;31492;54.856;26.318;2022-07-01T10:33:38;1004.1;;;21;100
45789;BME280;31492;54.856;26.318;2022-07-01T10:39:08;1004.1;;;21;100
45789;BME280;31492;54.856;26.318;2022-07-01T10:43:36;1004.1;;;21;100
45789;BME280;31492;54.856;26.318;2022-07-01T10:48:36;1004.1;;;21;100
45789;BME280;31492;54.856;26.318;2022-07-01T10:53:51;1004.1;;;21;100
45789;BME280;31492;54.856;26.318;2022-07-01T10:58:36;1004.1;;;21;100
45789;BME280;31492;54.856;26.318;2022-07-01T11:03:36;1004.1;;;21;100
45789;BME280;31492;54.856;26.318;2022-07-01T11:08:36;1004.1;;;21;100
45789;BME280;31492;54.856;26.318;2022-07-01T11:13:36;1004.1;;;21;100
45789;BME280;31492;54.856;26.318;2022-07-01T11:18:36;1004.1;;;21;100
45789;BME280;31492;54.856;26.318;2022-07-01T11:23:36;1004.1;;;21;100
45789;BME280;31492;54.856;26.318;2022-07-01T11:28:39;1004.1;;;21;100
45789;BME280;31492;54.856;26.318;2022-07-01T11:33:36;1002.6;;;38.5;34.5
45789;BME280;31492;54.856;26.318;2022-07-01T11:38:36;1002.6;;;38.3;34.2
45789;BME280;31492;54.856;26.318;2022-07-01T11:43:37;1002.7;;;38.3;33.2
45789;BME280;31492;54.856;26.318;2022-07-01T11:48:37;1002.7;;;38.4;32.5
45789;BME280;31492;54.856;26.318;2022-07-01T11:53:36;1002.7;;;38.2;34.9
45789;BME280;31492;54.856;26.318;2022-07-01T11:58:40;1002.7;;;37.6;35.4
45789;BME280;31492;54.856;26.318;2022-07-01T12:03:36;1002.7;;;37.5;31.8
45789;BME280;31492;54.856;26.318;2022-07-01T12:08:36;1002.7;;;37.6;34.1
45789;BME280;31492;54.856;26.318;2022-07-01T12:13:36;1002.7;;;37.8;34
45789;BME280;31492;54.856;26.318;2022-07-01T12:18:36;1002.7;;;37.8;33.2
45789;BME280;31492;54.856;26.318;2022-07-01T12:23:36;1002.6;;;37.9;32.5
45789;BME280;31492;54.856;26.318;2022-07-01T12:28:38;1002.5;;;37.9;32.3
45789;BME280;31492;54.856;26.318;2022-07-01T12:33:38;1002.4;;;38;31.7
45789;BME280;31492;54.856;26.318;2022-07-01T12:38:36;1002.4;;;37;33.8
45789;BME280;31492;54.856;26.318;2022-07-01T12:43:36;1002.4;;;36.9;33.4
45789;BME280;31492;54.856;26.318;2022-07-01T12:48:51;1002.3;;;37.5;34
45789;BME280;31492;54.856;26.318;2022-07-01T12:53:36;1002.2;;;37.6;31.6
45789;BME280;31492;54.856;26.318;2022-07-01T12:58:36;1002.3;;;37.6;33.3
45789;BME280;31492;54.856;26.318;2022-07-01T13:03:36;1002.2;;;37.6;31.7
45789;BME280;31492;54.856;26.318;2022-07-01T13:08:36;1002.3;;;37.2;31.6
45789;BME280;31492;54.856;26.318;2022-07-01T13:13:36;1002.3;;;36.5;33.2
45789;BME280;31492;54.856;26.318;2022-07-01T13:18:36;1002.2;;;35.9;34.4
45789;BME280;31492;54.856;26.318;2022-07-01T13:23:36;1002.2;;;35.8;38.4
45789;BME280;31492;54.856;26.318;2022-07-01T13:28:36;1002.2;;;35.3;41.3
45789;BME280;31492;54.856;26.318;2022-07-01T13:33:36;1002.2;;;34.7;44.7
45789;BME280;31492;54.856;26.318;2022-07-01T13:38:36;1002.2;;;34.4;50.4
45789;BME280;31492;54.856;26.318;2022-07-01T13:43:36;1002.2;;;34.2;51.5
45789;BME280;31492;54.856;26.318;2022-07-01T13:48:36;1002.3;;;34.1;52.4
45789;BME280;31492;54.856;26.318;2022-07-01T13:53:36;1002.3;;;33.8;59.5
45789;BME280;31492;54.856;26.318;2022-07-01T13:58:36;1002.3;;;33.5;62.2
45789;BME280;31492;54.856;26.318;2022-07-01T14:03:36;1002.3;;;32.9;75.9
45789;BME280;31492;54.856;26.318;2022-07-01T14:08:36;1002.3;;;32.6;82.1
45789;BME280;31492;54.856;26.318;2022-07-01T14:13:36;1002.3;;;32.4;85.1
45789;BME280;31492;54.856;26.318;2022-07-01T14:18:36;1002.2;;;32.3;80.5
45789;BME280;31492;54.856;26.318;2022-07-01T14:23:36;1002.2;;;32.3;81.7
45789;BME280;31492;54.856;26.318;2022-07-01T14:28:36;1002.2;;;32.5;66.8
45789;BME280;31492;54.856;26.318;2022-07-01T14:33:36;1002.2;;;32.3;79.7
45789;BME280;31492;54.856;26.318;2022-07-01T14:38:36;1002.2;;;31.9;66.7
45789;BME280;31492;54.856;26.318;2022-07-01T14:43:36;1002.2;;;31.7;81
45789;BME280;31492;54.856;26.318;2022-07-01T14:48:36;1002.2;;;31.6;99.9
45789;BME280;31492;54.856;26.318;2022-07-01T14:53:36;1002.2;;;31.1;100
45789;BME280;31492;54.856;26.318;2022-07-01T14:58:36;1002.2;;;30.8;100
45789;BME280;31492;54.856;26.318;2022-07-01T15:03:36;1002.2;;;30.7;100
45789;BME280;31492;54.856;26.318;2022-07-01T15:08:36;1002.1;;;30.8;100
45789;BME280;31492;54.856;26.318;2022-07-01T15:13:36;1002.1;;;30.7;100
45789;BME280;31492;54.856;26.318;2022-07-01T15:18:36;1002.1;;;30.6;100
45789;BME280;31492;54.856;26.318;2022-07-01T15:23:36;1002;;;30.5;100
45789;BME280;31492;54.856;26.318;2022-07-01T15:28:36;1002.1;;;30.1;100
45789;BME280;31492;54.856;26.318;2022-07-01T15:33:36;1002.1;;;29.8;100
45789;BME280;31492;54.856;26.318;2022-07-01T15:38:37;1002.1;;;29.5;100
45789;BME280;31492;54.856;26.318;2022-07-01T15:43:36;1002.1;;;29.3;100
45789;BME280;31492;54.856;26.318;2022-07-01T15:48:37;1002.1;;;29.1;100
45789;BME280;31492;54.856;26.318;2022-07-01T15:53:36;1002.2;;;29;100
45789;BME280;31492;54.856;26.318;2022-07-01T15:58:36;1002.2;;;28.9;100
45789;BME280;31492;54.856;26.318;2022-07-01T16:03:36;1002.2;;;28.7;100
45789;BME280;31492;54.856;26.318;2022-07-01T16:08:37;1002.2;;;28.6;100
45789;BME280;31492;54.856;26.318;2022-07-01T16:13:37;1002.2;;;28.4;100
45789;BME280;31492;54.856;26.318;2022-07-01T16:18:36;1002.2;;;28.3;100
45789;BME280;31492;54.856;26.318;2022-07-01T16:23:36;1002.3;;;28.2;100
45789;BME280;31492;54.856;26.318;2022-07-01T16:28:36;1002.3;;;28.1;100
45789;BME280;31492;54.856;26.318;2022-07-01T16:33:36;1002.3;;;28;100
45789;BME280;31492;54.856;26.318;2022-07-01T16:39:12;1002.3;;;27.8;100
45789;BME280;31492;54.856;26.318;2022-07-01T16:43:37;1002.3;;;27.6;100
45789;BME280;31492;54.856;26.318;2022-07-01T16:48:36;1002.2;;;27.4;100
45789;BME280;31492;54.856;26.318;2022-07-01T16:53:38;1002.2;;;27.2;100
45789;BME280;31492;54.856;26.318;2022-07-01T16:58:36;1002.1;;;27;100
45789;BME280;31492;54.856;26.318;2022-07-01T17:03:36;1002.1;;;26.8;100
45789;BME280;31492;54.856;26.318;2022-07-01T17:08:36;1002.1;;;26.7;100
45789;BME280;31492;54.856;26.318;2022-07-01T17:13:36;1002.1;;;26.4;100
45789;BME280;31492;54.856;26.318;2022-07-01T17:18:36;1002.1;;;26.4;100
45789;BME280;31492;54.856;26.318;2022-07-01T17:23:42;1002.1;;;26.2;100
45789;BME280;31492;54.856;26.318;2022-07-01T17:29:09;1002.1;;;26.1;100
45789;BME280;31492;54.856;26.318;2022-07-01T17:33:37;1002.1;;;25.9;100
45789;BME280;31492;54.856;26.318;2022-07-01T17:38:39;1002.1;;;25.8;100
45789;BME280;31492;54.856;26.318;2022-07-01T17:43:36;1002.1;;;25.7;100
45789;BME280;31492;54.856;26.318;2022-07-01T17:48:36;1002;;;25.6;100
45789;BME280;31492;54.856;26.318;2022-07-01T17:53:36;1002;;;25.4;100
45789;BME280;31492;54.856;26.318;2022-07-01T17:58:36;1002;;;25.3;100
45789;BME280;31492;54.856;26.318;2022-07-01T18:03:37;1002;;;25.1;100
45789;BME280;31492;54.856;26.318;2022-07-01T18:08:36;1002.1;;;24.9;100
45789;BME280;31492;54.856;26.318;2022-07-01T18:13:43;1002;;;24.7;100
45789;BME280;31492;54.856;26.318;2022-07-01T18:18:36;1002;;;24.4;100
45789;BME280;31492;54.856;26.318;2022-07-01T18:23:36;1002.1;;;24.4;100
45789;BME280;31492;54.856;26.318;2022-07-01T18:28:40;1002.1;;;24.2;100
45789;BME280;31492;54.856;26.318;2022-07-01T18:33:36;1002.1;;;24;100
45789;BME280;31492;54.856;26.318;2022-07-01T18:38:36;1002;;;23.8;100
45789;BME280;31492;54.856;26.318;2022-07-01T18:43:36;1002;;;23.6;100
45789;BME280;31492;54.856;26.318;2022-07-01T18:48:36;1002.1;;;23.5;100
45789;BME280;31492;54.856;26.318;2022-07-01T18:53:36;1002.1;;;23.2;100
45789;BME280;31492;54.856;26.318;2022-07-01T18:58:36;1002.1;;;23.1;100
45789;BME280;31492;54.856;26.318;2022-07-01T19:03:36;1002.1;;;23;100
45789;BME280;31492;54.856;26.318;2022-07-01T19:08:36;1002.1;;;22.8;100
45789;BME280;31492;54.856;26.318;2022-07-01T19:13:36;1002.2;;;22.7;100
45789;BME280;31492;54.856;26.318;2022-07-01T19:18:36;1002.3;;;22.5;100
45789;BME280;31492;54.856;26.318;2022-07-01T19:23:36;1002.2;;;22.3;100
45789;BME280;31492;54.856;26.318;2022-07-01T19:28:36;1002.2;;;22.2;100
45789;BME280;31492;54.856;26.318;2022-07-01T19:33:36;1002.3;;;22.2;100
45789;BME280;31492;54.856;26.318;2022-07-01T19:38:36;1002.4;;;22;100
45789;BME280;31492;54.856;26.318;2022-07-01T19:43:36;1002.5;;;21.9;100
45789;BME280;31492;54.856;26.318;2022-07-01T19:48:36;1002.5;;;21.8;100
45789;BME280;31492;54.856;26.318;2022-07-01T19:53:36;1002.5;;;21.7;100
45789;BME280;31492;54.856;26.318;2022-07-01T19:58:36;1002.6;;;21.7;100
45789;BME280;31492;54.856;26.318;2022-07-01T20:03:36;1002.6;;;21.5;100
45789;BME280;31492;54.856;26.318;2022-07-01T20:08:36;1002.7;;;21.4;100
45789;BME280;31492;54.856;26.318;2022-07-01T20:13:36;1002.8;;;21.4;100
45789;BME280;31492;54.856;26.318;2022-07-01T20:18:36;1003;;;21.4;100
45789;BME280;31492;54.856;26.318;2022-07-01T20:23:37;1003.1;;;21.3;100
45789;BME280;31492;54.856;26.318;2022-07-01T20:28:36;1003.2;;;21.3;100
45789;BME280;31492;54.856;26.318;2022-07-01T20:33:36;1003.3;;;21.2;100
45789;BME280;31492;54.856;26.318;2022-07-01T20:38:36;1003.4;;;21.1;100
45789;BME280;31492;54.856;26.318;2022-07-01T20:43:36;1003.4;;;21;100
45789;BME280;31492;54.856;26.318;2022-07-01T20:48:36;1003.5;;;20.9;100
45789;BME280;31492;54.856;26.318;2022-07-01T20:53:36;1003.5;;;20.8;100
45789;BME280;31492;54.856;26.318;2022-07-01T20:58:36;1003.5;;;20.6;100
45789;BME280;31492;54.856;26.318;2022-07-01T21:03:36;1003.5;;;20.5;100
45789;BME280;31492;54.856;26.318;2022-07-01T21:08:36;1003.5;;;20.6;100
45789;BME280;31492;54.856;26.318;2022-07-01T21:13:36;1003.5;;;20.4;100
45789;BME280;31492;54.856;26.318;2022-07-01T21:18:36;1003.4;;;20.2;100
45789;BME280;31492;54.856;26.318;2022-07-01T21:23:36;1003.5;;;20;100
45789;BME280;31492;54.856;26.318;2022-07-01T21:28:36;1003.5;;;20;100
45789;BME280;31492;54.856;26.318;2022-07-01T21:33:36;1003.5;;;19.9;100
45789;BME280;31492;54.856;26.318;2022-07-01T21:38:36;1003.5;;;19.9;100
45789;BME280;31492;54.856;26.318;2022-07-01T21:43:36;1003.6;;;19.9;100
45789;BME280;31492;54.856;26.318;2022-07-01T21:48:36;1003.5;;;19.9;100
45789;BME280;31492;54.856;26.318;2022-07-01T21:53:38;1003.5;;;19.7;100
45789;BME280;31492;54.856;26.318;2022-07-01T21:58:36;1003.4;;;19.8;100
45789;BME280;31492;54.856;26.318;2022-07-01T22:03:37;1003.4;;;19.7;100
45789;BME280;31492;54.856;26.318;2022-07-01T22:08:36;1003.4;;;19.6;100
45789;BME280;31492;54.856;26.318;2022-07-01T22:13:41;1003.4;;;19.6;100
45789;BME280;31492;54.856;26.318;2022-07-01T22:18:36;1003.5;;;19.7;100
45789;BME280;31492;54.856;26.318;2022-07-01T22:23:37;1003.5;;;19.6;100
45789;BME280;31492;54.856;26.318;2022-07-01T22:28:36;1003.5;;;19.5;100
45789;BME280;31492;54.856;26.318;2022-07-01T22:33:37;1003.6;;;19.5;100
45789;BME280;31492;54.856;26.318;2022-07-01T22:38:36;1003.6;;;19.6;100
45789;BME280;31492;54.856;26.318;2022-07-01T22:43:36;1003.6;;;19.5;100
45789;BME280;31492;54.856;26.318;2022-07-01T22:48:41;1003.6;;;19.4;100
45789;BME280;31492;54.856;26.318;2022-07-01T22:53:40;1003.6;;;19.4;100
45789;BME280;31492;54.856;26.318;2022-07-01T22:58:41;1003.6;;;19.2;100
45789;BME280;31492;54.856;26.318;2022-07-01T23:03:36;1003.7;;;19.2;100
45789;BME280;31492;54.856;26.318;2022-07-01T23:08:40;1003.7;;;19.1;100
45789;BME280;31492;54.856;26.318;2022-07-01T23:13:38;1003.6;;;19;100
45789;BME280;31492;54.856;26.318;2022-07-01T23:18:36;1003.6;;;18.9;100
45789;BME280;31492;54.856;26.318;2022-07-01T23:23:37;1003.7;;;18.9;100
45789;BME280;31492;54.856;26.318;2022-07-01T23:28:38;1003.7;;;18.9;100
45789;BME280;31492;54.856;26.318;2022-07-01T23:33:39;1003.7;;;18.9;100
45789;BME280;31492;54.856;26.318;2022-07-01T23:38:37;1003.7;;;18.8;100
45789;BME280;31492;54.856;26.318;2022-07-01T23:43:36;1003.7;;;18.7;100
45789;BME280;31492;54.856;26.318;2022-07-01T23:48:36;1003.8;;;18.7;100
45789;BME280;31492;54.856;26.318;2022-07-01T23:53:36;1003.8;;;18.7;100
45789;BME280;31492;54.856;26.318;2022-07-01T23:58:36;1003.9;;;18.7;100
